createdAt,value
2022-11-22T00:00:31.509Z,1000.98
2022-11-22T00:01:35.602Z,1000.89
2022-11-22T00:02:39.784Z,1000.91
2022-11-22T00:03:43.899Z,1000.90
2022-11-22T00:04:48.163Z,1000.90
2022-11-22T00:05:52.142Z,1000.89
2022-11-22T00:06:56.280Z,1000.96
2022-11-22T00:08:00.460Z,1000.92
2022-11-22T00:09:04.530Z,1001.00
2022-11-22T00:10:08.657Z,1001.04
2022-11-22T00:11:12.832Z,1001.07
2022-11-22T00:12:17.053Z,1001.11
2022-11-22T00:13:21.081Z,1001.09
2022-11-22T00:14:25.187Z,1001.17
2022-11-22T00:15:29.310Z,1001.22
2022-11-22T00:16:33.490Z,1001.21
2022-11-22T00:17:37.670Z,1001.22
2022-11-22T00:18:41.798Z,1001.15
2022-11-22T00:19:45.855Z,1001.14
2022-11-22T00:20:49.984Z,1001.15
2022-11-22T00:21:54.137Z,1001.22
2022-11-22T00:22:58.361Z,1001.25
2022-11-22T00:24:02.508Z,1001.28
2022-11-22T00:25:06.625Z,1001.23
2022-11-22T00:26:10.676Z,1001.21
2022-11-22T00:27:14.842Z,1001.18
2022-11-22T00:28:18.992Z,1001.19
2022-11-22T00:29:23.198Z,1001.18
2022-11-22T00:30:27.247Z,1001.19
2022-11-22T00:31:31.371Z,1001.24
2022-11-22T00:32:35.494Z,1001.18
2022-11-22T00:33:39.740Z,1001.19
2022-11-22T00:34:43.931Z,1001.18
2022-11-22T00:35:48.030Z,1001.16
2022-11-22T00:36:52.178Z,1001.17
2022-11-22T00:37:56.365Z,1001.21
2022-11-22T00:39:00.455Z,1001.24
2022-11-22T00:40:04.541Z,1001.23
2022-11-22T00:41:08.774Z,1001.24
2022-11-22T00:42:12.904Z,1001.24
2022-11-22T00:43:17.044Z,1001.23
2022-11-22T00:44:21.245Z,1001.25
2022-11-22T00:45:25.235Z,1001.24
2022-11-22T00:46:29.483Z,1001.27
2022-11-22T00:47:33.566Z,1001.26
2022-11-22T00:48:37.783Z,1001.28
2022-11-22T00:49:41.949Z,1001.25
2022-11-22T00:50:46.104Z,1001.24
2022-11-22T00:51:50.145Z,1001.25
2022-11-22T00:52:54.323Z,1001.25
2022-11-22T00:53:58.418Z,1001.25
2022-11-22T00:55:02.583Z,1001.23
2022-11-22T00:56:06.755Z,1001.19
2022-11-22T00:57:10.884Z,1001.13
2022-11-22T00:58:15.006Z,1001.06
2022-11-22T00:59:19.075Z,1001.01
2022-11-22T01:00:23.301Z,1001.02
2022-11-22T01:01:27.326Z,1001.07
2022-11-22T01:02:31.410Z,1001.07
2022-11-22T01:03:35.639Z,1001.07
2022-11-22T01:04:39.784Z,1001.06
2022-11-22T01:05:43.839Z,1001.05
2022-11-22T01:06:47.984Z,1001.06
2022-11-22T01:07:52.215Z,1001.08
2022-11-22T01:08:56.270Z,1001.02
2022-11-22T01:10:00.291Z,1000.99
2022-11-22T01:11:04.398Z,1000.93
2022-11-22T01:12:08.494Z,1000.95
2022-11-22T01:13:12.569Z,1000.86
2022-11-22T01:14:16.697Z,1000.78
2022-11-22T01:15:20.830Z,1000.81
2022-11-22T01:16:25.051Z,1000.85
2022-11-22T01:17:29.145Z,1000.87
2022-11-22T01:18:33.344Z,1000.87
2022-11-22T01:19:37.404Z,1000.88
2022-11-22T01:20:41.593Z,1000.86
2022-11-22T01:21:45.745Z,1000.87
2022-11-22T01:22:49.794Z,1000.90
2022-11-22T01:23:53.915Z,1000.90
2022-11-22T01:24:58.028Z,1000.92
2022-11-22T01:26:02.203Z,1000.96
2022-11-22T01:27:06.339Z,1000.90
2022-11-22T01:28:10.496Z,1000.93
2022-11-22T01:29:14.629Z,1000.91
2022-11-22T01:30:18.700Z,1000.99
2022-11-22T01:31:22.791Z,1000.94
2022-11-22T01:32:26.909Z,1000.96
2022-11-22T01:33:30.994Z,1001.00
2022-11-22T01:34:35.198Z,1001.01
2022-11-22T01:35:39.312Z,1001.00
2022-11-22T01:36:43.364Z,1000.96
2022-11-22T01:37:47.559Z,1000.94
2022-11-22T01:38:51.722Z,1000.91
2022-11-22T01:39:55.878Z,1000.92
2022-11-22T01:41:00.039Z,1000.91
2022-11-22T01:42:04.059Z,1000.90
2022-11-22T01:43:08.250Z,1000.91
2022-11-22T01:44:12.394Z,1000.90
2022-11-22T01:45:16.475Z,1000.91
2022-11-22T01:46:20.698Z,1000.89
2022-11-22T01:47:24.792Z,1000.89
2022-11-22T01:48:28.889Z,1000.83
2022-11-22T01:49:33.119Z,1000.81
2022-11-22T01:50:37.188Z,1000.82
2022-11-22T01:51:41.214Z,1000.88
2022-11-22T01:52:45.335Z,1000.82
2022-11-22T01:53:49.423Z,1000.84
2022-11-22T01:54:53.632Z,1000.88
2022-11-22T01:55:57.728Z,1000.86
2022-11-22T01:57:01.814Z,1000.86
2022-11-22T01:58:06.010Z,1000.85
2022-11-22T01:59:10.152Z,1000.84
2022-11-22T02:00:14.239Z,1000.85
2022-11-22T02:01:18.471Z,1000.83
2022-11-22T02:02:22.459Z,1000.79
2022-11-22T02:03:26.558Z,1000.86
2022-11-22T02:04:30.726Z,1000.82
2022-11-22T02:05:34.807Z,1000.80
2022-11-22T02:06:38.899Z,1000.85
2022-11-22T02:07:43.186Z,1000.87
2022-11-22T02:08:47.150Z,1000.87
2022-11-22T02:09:51.281Z,1000.86
2022-11-22T02:10:55.399Z,1000.88
2022-11-22T02:11:59.617Z,1000.86
2022-11-22T02:13:03.653Z,1000.91
2022-11-22T02:14:07.722Z,1000.86
2022-11-22T02:15:11.898Z,1000.86
2022-11-22T02:16:15.945Z,1000.83
2022-11-22T02:17:20.099Z,1000.85
2022-11-22T02:18:24.256Z,1000.83
2022-11-22T02:19:28.563Z,1000.85
2022-11-22T02:20:35.482Z,1000.84
2022-11-22T02:21:38.572Z,1000.82
2022-11-22T02:22:42.761Z,1000.83
2022-11-22T02:23:46.820Z,1000.81
2022-11-22T02:24:50.888Z,1000.80
2022-11-22T02:25:54.970Z,1000.81
2022-11-22T02:26:59.104Z,1000.79
2022-11-22T02:28:03.309Z,1000.75
2022-11-22T02:29:07.359Z,1000.73
2022-11-22T02:30:11.430Z,1000.75
2022-11-22T02:31:15.583Z,1000.77
2022-11-22T02:32:19.689Z,1000.78
2022-11-22T02:33:23.937Z,1000.82
2022-11-22T02:34:28.095Z,1000.79
2022-11-22T02:35:32.149Z,1000.81
2022-11-22T02:36:36.341Z,1000.78
2022-11-22T02:37:40.454Z,1000.80
2022-11-22T02:38:44.588Z,1000.79
2022-11-22T02:39:48.749Z,1000.75
2022-11-22T02:40:52.880Z,1000.75
2022-11-22T02:41:56.957Z,1000.69
2022-11-22T02:43:01.158Z,1000.71
2022-11-22T02:44:05.211Z,1000.71
2022-11-22T02:45:09.410Z,1000.73
2022-11-22T02:46:13.481Z,1000.71
2022-11-22T02:47:17.742Z,1000.70
2022-11-22T02:48:21.856Z,1000.70
2022-11-22T02:49:25.876Z,1000.66
2022-11-22T02:50:30.015Z,1000.63
2022-11-22T02:51:34.205Z,1000.56
2022-11-22T02:52:38.294Z,1000.54
2022-11-22T02:53:42.482Z,1000.50
2022-11-22T02:54:46.516Z,1000.50
2022-11-22T02:55:50.627Z,1000.45
2022-11-22T02:56:54.800Z,1000.40
2022-11-22T02:57:58.969Z,1000.45
2022-11-22T02:59:03.131Z,1000.39
2022-11-22T03:00:07.302Z,1000.38
2022-11-22T03:01:11.480Z,1000.35
2022-11-22T03:02:15.487Z,1000.35
2022-11-22T03:03:19.649Z,1000.34
2022-11-22T03:04:23.791Z,1000.30
2022-11-22T03:05:27.977Z,1000.30
2022-11-22T03:06:32.136Z,1000.28
2022-11-22T03:07:36.310Z,1000.31
2022-11-22T03:08:40.381Z,1000.32
2022-11-22T03:09:44.531Z,1000.27
2022-11-22T03:10:48.678Z,1000.27
2022-11-22T03:11:52.855Z,1000.27
2022-11-22T03:12:57.010Z,1000.26
2022-11-22T03:14:01.085Z,1000.25
2022-11-22T03:15:05.257Z,1000.27
2022-11-22T03:16:09.383Z,1000.23
2022-11-22T03:17:13.534Z,1000.19
2022-11-22T03:18:17.689Z,1000.19
2022-11-22T03:19:21.754Z,1000.16
2022-11-22T03:20:25.859Z,1000.14
2022-11-22T03:21:30.061Z,1000.13
2022-11-22T03:22:34.081Z,1000.15
2022-11-22T03:23:38.291Z,1000.12
2022-11-22T03:24:42.504Z,1000.12
2022-11-22T03:25:46.598Z,1000.15
2022-11-22T03:26:50.689Z,1000.19
2022-11-22T03:27:54.925Z,1000.23
2022-11-22T03:28:58.932Z,1000.23
2022-11-22T03:30:03.150Z,1000.23
2022-11-22T03:31:07.257Z,1000.25
2022-11-22T03:32:11.423Z,1000.20
2022-11-22T03:33:15.462Z,1000.14
2022-11-22T03:34:19.670Z,1000.12
2022-11-22T03:35:23.806Z,1000.04
2022-11-22T03:36:27.968Z,1000.06
2022-11-22T03:37:32.140Z,1000.04
2022-11-22T03:38:36.178Z,1000.03
2022-11-22T03:39:40.302Z,1000.09
2022-11-22T03:40:44.541Z,1000.08
2022-11-22T03:41:48.707Z,1000.08
2022-11-22T03:42:52.872Z,1000.09
2022-11-22T03:43:56.897Z,1000.13
2022-11-22T03:45:01.006Z,1000.10
2022-11-22T03:46:05.269Z,1000.14
2022-11-22T03:47:09.303Z,1000.12
2022-11-22T03:48:13.464Z,1000.05
2022-11-22T03:49:17.525Z,1000.00
2022-11-22T03:50:21.742Z,999.98
2022-11-22T03:51:25.820Z,999.98
2022-11-22T03:52:30.031Z,1000.00
2022-11-22T03:53:34.079Z,1000.05
2022-11-22T03:54:38.269Z,1000.03
2022-11-22T03:55:42.428Z,1000.05
2022-11-22T03:56:46.634Z,1000.08
2022-11-22T03:57:50.614Z,1000.08
2022-11-22T03:58:54.828Z,1000.07
2022-11-22T03:59:58.985Z,1000.08
2022-11-22T04:01:03.266Z,1000.08
2022-11-22T04:02:07.401Z,1000.10
2022-11-22T04:03:11.327Z,1000.12
2022-11-22T04:04:15.441Z,1000.09
2022-11-22T04:05:19.553Z,1000.08
2022-11-22T04:06:23.743Z,1000.06
2022-11-22T04:07:27.991Z,1000.10
2022-11-22T04:08:32.153Z,1000.11
2022-11-22T04:09:36.312Z,1000.10
2022-11-22T04:10:40.364Z,1000.00
2022-11-22T04:11:44.444Z,999.97
2022-11-22T04:12:48.590Z,1000.00
2022-11-22T04:13:52.664Z,999.92
2022-11-22T04:14:56.886Z,999.89
2022-11-22T04:16:00.987Z,999.87
2022-11-22T04:17:05.059Z,999.85
2022-11-22T04:18:09.282Z,999.84
2022-11-22T04:19:13.308Z,999.82
2022-11-22T04:20:17.416Z,999.81
2022-11-22T04:21:21.645Z,999.80
2022-11-22T04:22:25.666Z,999.75
2022-11-22T04:23:33.975Z,999.77
2022-11-22T04:24:33.993Z,999.73
2022-11-22T04:25:37.979Z,999.72
2022-11-22T04:26:42.233Z,999.66
2022-11-22T04:27:46.347Z,999.61
2022-11-22T04:29:09.247Z,999.63
2022-11-22T04:29:54.644Z,999.62
2022-11-22T04:30:58.761Z,999.64
2022-11-22T04:32:02.921Z,999.62
2022-11-22T04:33:06.993Z,999.61
2022-11-22T04:34:11.193Z,999.58
2022-11-22T04:35:15.347Z,999.58
2022-11-22T04:36:19.375Z,999.57
2022-11-22T04:37:23.448Z,999.52
2022-11-22T04:38:27.590Z,999.51
2022-11-22T04:39:32.154Z,999.59
2022-11-22T04:40:35.878Z,999.62
2022-11-22T04:41:40.029Z,999.57
2022-11-22T04:42:44.140Z,999.65
2022-11-22T04:43:48.353Z,999.68
2022-11-22T04:44:52.575Z,999.77
2022-11-22T04:45:56.669Z,999.78
2022-11-22T04:47:00.784Z,999.79
2022-11-22T04:48:04.979Z,999.79
2022-11-22T04:49:09.084Z,999.81
2022-11-22T04:50:13.266Z,999.79
2022-11-22T04:51:17.441Z,999.75
2022-11-22T04:52:21.477Z,999.76
2022-11-22T04:53:25.587Z,999.72
2022-11-22T04:54:29.773Z,999.71
2022-11-22T04:55:33.899Z,999.73
2022-11-22T04:56:37.964Z,999.73
2022-11-22T04:57:42.161Z,999.74
2022-11-22T04:58:46.230Z,999.79
2022-11-22T04:59:50.411Z,999.83
2022-11-22T05:00:54.712Z,999.87
2022-11-22T05:01:58.589Z,999.88
2022-11-22T05:03:02.745Z,999.86
2022-11-22T05:04:06.946Z,999.89
2022-11-22T05:05:11.210Z,999.89
2022-11-22T05:06:15.325Z,999.92
2022-11-22T05:07:19.506Z,999.84
2022-11-22T05:08:23.499Z,999.80
2022-11-22T05:09:27.838Z,999.76
2022-11-22T05:10:31.684Z,999.72
2022-11-22T05:11:35.806Z,999.68
2022-11-22T05:12:40.037Z,999.67
2022-11-22T05:13:44.105Z,999.64
2022-11-22T05:14:48.250Z,999.62
2022-11-22T05:15:52.384Z,999.62
2022-11-22T05:16:56.473Z,999.64
2022-11-22T05:18:00.754Z,999.64
2022-11-22T05:19:04.762Z,999.68
2022-11-22T05:20:08.951Z,999.68
2022-11-22T05:21:13.148Z,999.72
2022-11-22T05:22:17.281Z,999.74
2022-11-22T05:23:21.368Z,999.77
2022-11-22T05:24:25.631Z,999.79
2022-11-22T05:25:29.634Z,999.77
2022-11-22T05:26:33.840Z,999.78
2022-11-22T05:27:37.983Z,999.78
2022-11-22T05:28:42.161Z,999.69
2022-11-22T05:29:46.189Z,999.61
2022-11-22T05:30:50.412Z,999.63
2022-11-22T05:31:54.525Z,999.59
2022-11-22T05:32:58.560Z,999.57
2022-11-22T05:34:02.765Z,999.57
2022-11-22T05:35:06.909Z,999.55
2022-11-22T05:36:10.960Z,999.58
2022-11-22T05:37:15.087Z,999.62
2022-11-22T05:38:19.309Z,999.66
2022-11-22T05:39:23.464Z,999.69
2022-11-22T05:40:27.489Z,999.72
2022-11-22T05:41:31.603Z,999.72
2022-11-22T05:42:35.760Z,999.70
2022-11-22T05:43:39.958Z,999.70
2022-11-22T05:44:44.142Z,999.64
2022-11-22T05:45:48.281Z,999.56
2022-11-22T05:46:52.328Z,999.54
2022-11-22T05:47:56.551Z,999.49
2022-11-22T05:49:00.718Z,999.45
2022-11-22T05:50:04.755Z,999.41
2022-11-22T05:51:08.980Z,999.44
2022-11-22T05:52:13.040Z,999.54
2022-11-22T05:53:17.212Z,999.55
2022-11-22T05:54:21.258Z,999.53
2022-11-22T05:55:25.429Z,999.54
2022-11-22T05:56:29.451Z,999.52
2022-11-22T05:57:33.589Z,999.53
2022-11-22T05:58:37.699Z,999.55
2022-11-22T05:59:44.329Z,999.54
2022-11-22T06:00:45.953Z,999.55
2022-11-22T06:01:50.137Z,999.50
2022-11-22T06:02:54.267Z,999.50
2022-11-22T06:03:58.487Z,999.52
2022-11-22T06:05:02.582Z,999.56
2022-11-22T06:06:06.680Z,999.60
2022-11-22T06:07:10.840Z,999.63
2022-11-22T06:08:14.949Z,999.65
2022-11-22T06:09:19.008Z,999.66
2022-11-22T06:10:23.129Z,999.61
2022-11-22T06:11:27.377Z,999.63
2022-11-22T06:12:31.476Z,999.67
2022-11-22T06:13:35.530Z,999.72
2022-11-22T06:14:43.136Z,999.75
2022-11-22T06:15:43.811Z,999.79
2022-11-22T06:16:47.962Z,999.84
2022-11-22T06:17:52.054Z,999.89
2022-11-22T06:18:56.164Z,999.88
2022-11-22T06:20:05.869Z,999.86
2022-11-22T06:21:04.524Z,999.88
2022-11-22T06:22:08.519Z,999.84
2022-11-22T06:23:12.618Z,999.89
2022-11-22T06:24:16.825Z,999.89
2022-11-22T06:25:20.862Z,999.90
2022-11-22T06:26:24.965Z,999.94
2022-11-22T06:27:29.076Z,999.97
2022-11-22T06:28:33.311Z,999.99
2022-11-22T06:29:37.329Z,1000.07
2022-11-22T06:30:41.430Z,1000.13
2022-11-22T06:31:45.519Z,1000.21
2022-11-22T06:32:49.618Z,1000.26
2022-11-22T06:33:53.681Z,1000.26
2022-11-22T06:34:57.915Z,1000.23
2022-11-22T06:36:02.089Z,1000.20
2022-11-22T06:37:06.175Z,1000.16
2022-11-22T06:38:10.296Z,1000.12
2022-11-22T06:39:14.375Z,1000.08
2022-11-22T06:40:18.623Z,1000.06
2022-11-22T06:41:22.662Z,1000.03
2022-11-22T06:42:26.768Z,1000.01
2022-11-22T06:43:30.943Z,1000.02
2022-11-22T06:44:35.062Z,1000.02
2022-11-22T06:45:39.084Z,1000.00
2022-11-22T06:46:43.339Z,999.97
2022-11-22T06:47:47.419Z,999.95
2022-11-22T06:48:51.604Z,999.90
2022-11-22T06:49:55.668Z,999.89
2022-11-22T06:50:59.792Z,999.86
2022-11-22T06:52:04.029Z,999.88
2022-11-22T06:53:17.131Z,999.88
2022-11-22T06:54:12.135Z,999.92
2022-11-22T06:55:48.351Z,999.91
2022-11-22T06:56:20.465Z,999.88
2022-11-22T06:57:24.655Z,999.87
2022-11-22T06:58:28.914Z,999.96
2022-11-22T06:59:33.010Z,1000.00
2022-11-22T07:00:37.130Z,1000.02
2022-11-22T07:01:41.309Z,1000.05
2022-11-22T07:02:45.392Z,1000.06
2022-11-22T07:03:49.346Z,1000.07
2022-11-22T07:05:23.403Z,1000.10
2022-11-22T07:05:57.737Z,1000.14
2022-11-22T07:07:01.990Z,1000.13
2022-11-22T07:08:13.266Z,1000.16
2022-11-22T07:09:10.272Z,1000.16
2022-11-22T07:10:14.380Z,1000.15
2022-11-22T07:11:18.440Z,1000.15
2022-11-22T07:12:22.679Z,1000.11
2022-11-22T07:13:26.688Z,1000.12
2022-11-22T07:14:30.781Z,1000.13
2022-11-22T07:15:35.030Z,1000.10
2022-11-22T07:16:38.999Z,1000.10
2022-11-22T07:17:43.254Z,1000.15
2022-11-22T07:18:47.276Z,1000.13
2022-11-22T07:19:51.535Z,1000.13
2022-11-22T07:20:55.679Z,1000.06
2022-11-22T07:21:59.834Z,1000.11
2022-11-22T07:23:04.064Z,1000.13
2022-11-22T07:24:08.080Z,1000.12
2022-11-22T07:25:12.175Z,1000.16
2022-11-22T07:26:16.459Z,1000.17
2022-11-22T07:27:20.554Z,1000.18
2022-11-22T07:28:24.614Z,1000.17
2022-11-22T07:29:29.060Z,1000.16
2022-11-22T07:30:32.899Z,1000.19
2022-11-22T07:31:37.080Z,1000.21
2022-11-22T07:32:41.145Z,1000.20
2022-11-22T07:33:45.356Z,1000.21
2022-11-22T07:34:49.602Z,1000.26
2022-11-22T07:35:53.518Z,1000.23
2022-11-22T07:37:01.480Z,1000.23
2022-11-22T07:38:01.815Z,1000.26
2022-11-22T07:39:05.958Z,1000.23
2022-11-22T07:40:10.191Z,1000.26
2022-11-22T07:41:14.435Z,1000.26
2022-11-22T07:42:22.302Z,1000.25
2022-11-22T07:43:22.478Z,1000.21
2022-11-22T07:44:26.577Z,1000.23
2022-11-22T07:45:30.715Z,1000.17
2022-11-22T07:46:34.811Z,1000.18
2022-11-22T07:47:39.024Z,1000.16
2022-11-22T07:48:43.272Z,1000.13
2022-11-22T07:49:47.385Z,1000.11
2022-11-22T07:50:51.560Z,1000.05
2022-11-22T07:51:55.725Z,1000.03
2022-11-22T07:52:59.700Z,1000.00
2022-11-22T07:54:03.834Z,999.99
2022-11-22T07:55:13.640Z,1000.02
2022-11-22T07:56:12.244Z,1000.12
2022-11-22T07:57:16.507Z,1000.16
2022-11-22T07:58:20.455Z,1000.18
2022-11-22T07:59:24.505Z,1000.18
2022-11-22T08:00:28.780Z,1000.23
2022-11-22T08:01:32.843Z,1000.24
2022-11-22T08:02:36.941Z,1000.22
2022-11-22T08:03:41.041Z,1000.21
2022-11-22T08:04:45.268Z,1000.20
2022-11-22T08:05:49.331Z,1000.19
2022-11-22T08:06:53.438Z,1000.18
2022-11-22T08:07:57.643Z,1000.18
2022-11-22T08:09:02.508Z,1000.21
2022-11-22T08:10:05.805Z,1000.16
2022-11-22T08:11:09.844Z,1000.16
2022-11-22T08:12:14.000Z,1000.16
2022-11-22T08:13:18.205Z,1000.20
2022-11-22T08:14:22.189Z,1000.16
2022-11-22T08:15:26.324Z,1000.15
2022-11-22T08:16:30.551Z,1000.07
2022-11-22T08:17:34.619Z,1000.01
2022-11-22T08:18:38.841Z,1000.09
2022-11-22T08:19:42.913Z,1000.11
2022-11-22T08:20:47.043Z,1000.11
2022-11-22T08:21:55.462Z,1000.08
2022-11-22T08:22:55.251Z,1000.03
2022-11-22T08:23:59.439Z,1000.00
2022-11-22T08:25:03.502Z,1000.05
2022-11-22T08:26:07.720Z,999.98
2022-11-22T08:27:11.760Z,1000.02
2022-11-22T08:28:15.880Z,1000.01
2022-11-22T08:29:20.130Z,999.92
2022-11-22T08:30:24.242Z,999.87
2022-11-22T08:31:28.474Z,999.91
2022-11-22T08:32:32.616Z,999.91
2022-11-22T08:33:36.672Z,999.91
2022-11-22T08:34:46.950Z,999.93
2022-11-22T08:35:44.985Z,999.97
2022-11-22T08:36:49.127Z,999.96
2022-11-22T08:37:53.186Z,999.96
2022-11-22T08:38:57.253Z,1000.02
2022-11-22T08:40:01.412Z,1000.08
2022-11-22T08:41:05.748Z,999.98
2022-11-22T08:42:09.770Z,999.99
2022-11-22T08:43:13.792Z,999.98
2022-11-22T08:44:18.075Z,999.99
2022-11-22T08:45:22.353Z,999.98
2022-11-22T08:46:26.286Z,1000.00
2022-11-22T08:47:30.387Z,1000.00
2022-11-22T08:48:34.554Z,1000.06
2022-11-22T08:49:38.861Z,1000.11
2022-11-22T08:50:42.994Z,1000.14
2022-11-22T08:51:47.070Z,1000.22
2022-11-22T08:52:51.313Z,1000.11
2022-11-22T08:53:55.457Z,1000.12
2022-11-22T08:55:00.571Z,1000.11
2022-11-22T08:56:04.360Z,1000.14
2022-11-22T08:57:08.582Z,1000.19
2022-11-22T08:58:12.599Z,1000.24
2022-11-22T08:59:16.904Z,1000.26
2022-11-22T09:00:20.996Z,1000.29
2022-11-22T09:01:25.299Z,1000.26
2022-11-22T09:02:29.301Z,1000.29
2022-11-22T09:03:33.348Z,1000.25
2022-11-22T09:04:37.550Z,1000.25
2022-11-22T09:09:03.272Z,1000.25
2022-11-22T09:09:58.176Z,1000.24
2022-11-22T09:11:02.217Z,1000.23
2022-11-22T09:12:06.443Z,1000.26
2022-11-22T09:13:10.689Z,1000.24
2022-11-22T09:14:14.705Z,1000.23
2022-11-22T09:15:18.981Z,1000.23
2022-11-22T09:16:23.019Z,1000.24
2022-11-22T09:17:27.401Z,1000.25
2022-11-22T09:18:31.458Z,1000.25
2022-11-22T09:19:35.515Z,1000.25
2022-11-22T09:20:39.778Z,1000.22
2022-11-22T09:21:43.839Z,1000.20
2022-11-22T09:22:47.974Z,1000.22
2022-11-22T09:23:52.186Z,1000.18
2022-11-22T09:24:56.268Z,1000.15
2022-11-22T09:26:00.475Z,1000.12
2022-11-22T09:27:04.670Z,1000.09
2022-11-22T09:28:08.720Z,1000.11
2022-11-22T09:29:12.935Z,1000.08
2022-11-22T09:30:17.102Z,1000.08
2022-11-22T09:31:21.194Z,1000.09
2022-11-22T09:32:29.339Z,1000.08
2022-11-22T09:33:29.510Z,1000.07
2022-11-22T09:34:33.549Z,1000.03
2022-11-22T09:35:37.659Z,1000.03
2022-11-22T09:36:41.763Z,1000.04
2022-11-22T09:37:45.868Z,1000.00
2022-11-22T09:38:49.894Z,999.93
2022-11-22T09:39:54.070Z,999.88
2022-11-22T09:40:58.291Z,999.83
2022-11-22T09:42:02.384Z,999.80
2022-11-22T09:43:06.503Z,999.82
2022-11-22T09:44:10.722Z,999.86
2022-11-22T09:45:14.787Z,999.82
2022-11-22T09:46:18.890Z,999.84
2022-11-22T09:47:23.256Z,999.83
2022-11-22T09:48:27.384Z,999.82
2022-11-22T09:49:31.761Z,999.84
2022-11-22T09:50:35.590Z,999.86
2022-11-22T09:51:39.719Z,999.92
2022-11-22T09:52:43.869Z,999.94
2022-11-22T09:53:48.066Z,999.94
2022-11-22T09:54:52.169Z,1000.03
2022-11-22T09:55:56.324Z,1000.03
2022-11-22T09:57:00.425Z,1000.09
2022-11-22T09:58:05.487Z,1000.04
2022-11-22T09:59:09.213Z,1000.04
2022-11-22T10:00:13.342Z,1000.05
2022-11-22T10:01:17.579Z,1000.04
2022-11-22T10:02:21.640Z,1000.07
2022-11-22T10:03:25.674Z,1000.10
2022-11-22T10:04:29.971Z,1000.11
2022-11-22T10:05:34.038Z,1000.14
2022-11-22T10:06:38.007Z,1000.12
2022-11-22T10:07:42.415Z,1000.11
2022-11-22T10:08:46.408Z,1000.10
2022-11-22T10:09:50.536Z,1000.07
2022-11-22T10:10:54.641Z,1000.08
2022-11-22T10:11:58.775Z,1000.10
2022-11-22T10:13:02.870Z,1000.09
2022-11-22T10:14:06.905Z,1000.12
2022-11-22T10:15:11.273Z,1000.11
2022-11-22T10:16:15.544Z,1000.17
2022-11-22T10:17:19.611Z,1000.17
2022-11-22T10:18:26.639Z,1000.24
2022-11-22T10:19:30.182Z,1000.23
2022-11-22T10:20:33.928Z,1000.22
2022-11-22T10:21:38.177Z,1000.21
2022-11-22T10:22:42.206Z,1000.19
2022-11-22T10:23:46.536Z,1000.22
2022-11-22T10:24:50.659Z,1000.19
2022-11-22T10:25:54.734Z,1000.16
2022-11-22T10:26:58.847Z,1000.18
2022-11-22T10:28:03.041Z,1000.14
2022-11-22T10:29:07.225Z,1000.12
2022-11-22T10:30:11.381Z,1000.13
2022-11-22T10:31:15.347Z,1000.15
2022-11-22T10:32:19.504Z,1000.19
2022-11-22T10:33:23.619Z,1000.19
2022-11-22T10:34:27.763Z,1000.22
2022-11-22T10:35:31.879Z,1000.28
2022-11-22T10:36:36.139Z,1000.29
2022-11-22T10:37:40.515Z,1000.31
2022-11-22T10:38:44.496Z,1000.35
2022-11-22T10:39:48.699Z,1000.37
2022-11-22T10:40:52.974Z,1000.34
2022-11-22T10:41:56.999Z,1000.33
2022-11-22T10:43:01.321Z,1000.32
2022-11-22T10:44:05.480Z,1000.31
2022-11-22T10:45:09.565Z,1000.33
2022-11-22T10:46:13.645Z,1000.33
2022-11-22T10:47:17.820Z,1000.36
2022-11-22T10:48:22.037Z,1000.32
2022-11-22T10:49:26.241Z,1000.32
2022-11-22T10:50:30.355Z,1000.32
2022-11-22T10:51:34.651Z,1000.31
2022-11-22T10:52:38.678Z,1000.38
2022-11-22T10:53:43.131Z,1000.37
2022-11-22T10:54:47.008Z,1000.38
2022-11-22T10:55:51.297Z,1000.36
2022-11-22T10:56:55.396Z,1000.32
2022-11-22T10:57:59.633Z,1000.33
2022-11-22T10:59:03.718Z,1000.30
2022-11-22T11:00:07.742Z,1000.29
2022-11-22T11:01:12.067Z,1000.22
2022-11-22T11:02:16.177Z,1000.24
2022-11-22T11:03:20.143Z,1000.21
2022-11-22T11:04:24.348Z,1000.24
2022-11-22T11:05:28.603Z,1000.20
2022-11-22T11:06:49.774Z,1000.20
2022-11-22T11:07:36.836Z,1000.26
2022-11-22T11:09:12.276Z,1000.25
2022-11-22T11:10:10.355Z,1000.25
2022-11-22T11:10:49.533Z,1000.28
2022-11-22T11:11:53.548Z,1000.28
2022-11-22T11:12:57.712Z,1000.27
2022-11-22T11:14:01.938Z,1000.29
2022-11-22T11:15:06.123Z,1000.29
2022-11-22T11:16:10.398Z,1000.30
2022-11-22T11:17:14.441Z,1000.29
2022-11-22T11:18:18.551Z,1000.35
2022-11-22T11:19:22.803Z,1000.29
2022-11-22T11:20:26.964Z,1000.31
2022-11-22T11:21:31.055Z,1000.28
2022-11-22T11:23:06.924Z,1000.29
2022-11-22T11:23:39.476Z,1000.27
2022-11-22T11:24:43.744Z,1000.28
2022-11-22T11:25:47.871Z,1000.26
2022-11-22T11:26:51.889Z,1000.25
2022-11-22T11:27:56.151Z,1000.30
2022-11-22T11:29:00.279Z,1000.28
2022-11-22T11:30:04.405Z,1000.22
2022-11-22T11:31:08.634Z,1000.21
2022-11-22T11:32:12.810Z,1000.20
2022-11-22T11:33:16.994Z,1000.19
2022-11-22T11:34:21.030Z,1000.23
2022-11-22T11:35:25.055Z,1000.20
2022-11-22T11:36:29.178Z,1000.21
2022-11-22T11:37:33.496Z,1000.24
2022-11-22T11:38:37.559Z,1000.21
2022-11-22T11:39:44.715Z,1000.20
2022-11-22T11:40:45.925Z,1000.20
2022-11-22T11:41:50.168Z,1000.15
2022-11-22T11:42:54.189Z,1000.09
2022-11-22T11:43:58.321Z,1000.10
2022-11-22T11:45:02.601Z,1000.08
2022-11-22T11:46:06.763Z,1000.08
2022-11-22T11:47:10.843Z,1000.09
2022-11-22T11:48:15.164Z,1000.07
2022-11-22T11:49:19.198Z,1000.06
2022-11-22T11:50:24.669Z,1000.08
2022-11-22T11:51:27.468Z,1000.10
2022-11-22T11:52:31.900Z,1000.15
2022-11-22T11:53:35.809Z,1000.11
2022-11-22T11:54:39.956Z,1000.14
2022-11-22T11:55:44.220Z,1000.19
2022-11-22T11:56:48.311Z,1000.15
2022-11-22T11:57:52.579Z,1000.18
2022-11-22T11:58:56.580Z,1000.18
2022-11-22T12:00:00.728Z,1000.20
2022-11-22T12:01:04.956Z,1000.21
2022-11-22T12:02:09.393Z,1000.24
2022-11-22T12:03:13.204Z,1000.21
2022-11-22T12:04:17.377Z,1000.25
2022-11-22T12:05:21.575Z,1000.27
2022-11-22T12:06:25.823Z,1000.22
2022-11-22T12:07:30.108Z,1000.20
2022-11-22T12:08:34.082Z,1000.17
2022-11-22T12:09:38.247Z,1000.18
2022-11-22T12:10:42.387Z,1000.14
2022-11-22T12:11:46.552Z,1000.11
2022-11-22T12:12:50.716Z,1000.13
2022-11-22T12:14:18.896Z,1000.11
2022-11-22T12:15:12.802Z,1000.09
2022-11-22T12:16:03.262Z,1000.12
2022-11-22T12:17:07.434Z,1000.15
2022-11-22T12:18:11.583Z,1000.15
2022-11-22T12:19:19.084Z,1000.17
2022-11-22T12:20:19.862Z,1000.17
2022-11-22T12:21:24.121Z,1000.13
2022-11-22T12:22:50.069Z,1000.07
2022-11-22T12:23:32.331Z,1000.04
2022-11-22T12:24:57.297Z,1000.03
2022-11-22T12:25:41.038Z,1000.00
2022-11-22T12:26:44.772Z,999.99
2022-11-22T12:27:48.920Z,999.97
2022-11-22T12:28:53.033Z,999.94
2022-11-22T12:29:57.338Z,999.98
2022-11-22T12:31:01.334Z,999.97
2022-11-22T12:32:05.462Z,1000.03
2022-11-22T12:33:09.734Z,1000.08
2022-11-22T12:34:13.795Z,1000.07
2022-11-22T12:35:17.924Z,1000.10
2022-11-22T12:36:22.082Z,1000.11
2022-11-22T12:37:26.211Z,1000.07
2022-11-22T12:38:30.357Z,1000.06
2022-11-22T12:39:34.524Z,1000.09
2022-11-22T12:40:38.759Z,1000.09
2022-11-22T12:41:42.808Z,1000.07
2022-11-22T12:42:46.958Z,1000.09
2022-11-22T12:43:51.144Z,1000.09
2022-11-22T12:44:55.359Z,1000.10
2022-11-22T12:45:59.557Z,1000.11
2022-11-22T12:47:03.578Z,1000.13
2022-11-22T12:48:07.787Z,1000.13
2022-11-22T12:49:11.879Z,1000.10
2022-11-22T12:50:16.123Z,1000.08
2022-11-22T12:51:20.195Z,1000.05
2022-11-22T12:52:24.308Z,1000.02
2022-11-22T12:53:28.545Z,1000.05
2022-11-22T12:54:33.002Z,1000.03
2022-11-22T12:55:36.811Z,1000.05
2022-11-22T12:56:40.960Z,1000.08
2022-11-22T12:57:45.145Z,1000.07
2022-11-22T12:58:49.372Z,1000.07
2022-11-22T12:59:53.574Z,1000.01
2022-11-22T13:00:57.705Z,999.99
2022-11-22T13:02:01.800Z,999.97
2022-11-22T13:03:05.882Z,999.97
2022-11-22T13:04:10.097Z,1000.01
2022-11-22T13:05:14.270Z,1000.03